Terminal Aerodrome Forecast
Issued by NWS Twin Cities, MN

Home | Current Version | Previous Version | Graphics & Text | Print | Product List | Glossary On
Versions: 1 2 3 4 5 6 7 8 9 10 11 12 13 14 15 16 17 18 19 20
000
FTUS43 KMPX 241121
TAFSTC
TAF
KSTC 241121Z 2412/2512 28006KT P6SM BKN100
     FM242100 25005KT P6SM BKN020 OVC050
     FM242300 04005KT 2SM -SN OVC012
      TEMPO 2502/2506 3/4SM -SN VV006
     FM251000 03007KT P6SM -SN SCT007 OVC025=

USA.gov is the U.S. government's official web portal to all federal, state and local government web resources and services.